sensor_id;sensor_type;location;lat;lon;timestamp;P1;durP1;ratioP1;P2;durP2;ratioP2
13230;SDS011;6681;53.254;10.398;2023-02-28T00:01:10;5.67;;;5.03;;
13230;SDS011;6681;53.254;10.398;2023-02-28T00:03:40;6.60;;;5.47;;
13230;SDS011;6681;53.254;10.398;2023-02-28T00:06:06;6.90;;;5.60;;
13230;SDS011;6681;53.254;10.398;2023-02-28T00:08:34;5.63;;;4.77;;
13230;SDS011;6681;53.254;10.398;2023-02-28T00:11:00;8.47;;;6.20;;
13230;SDS011;6681;53.254;10.398;2023-02-28T00:13:31;7.10;;;5.60;;
13230;SDS011;6681;53.254;10.398;2023-02-28T00:15:59;10.27;;;5.33;;
13230;SDS011;6681;53.254;10.398;2023-02-28T00:18:36;9.17;;;6.27;;
13230;SDS011;6681;53.254;10.398;2023-02-28T00:21:02;9.40;;;5.80;;
13230;SDS011;6681;53.254;10.398;2023-02-28T00:23:28;7.23;;;5.90;;
13230;SDS011;6681;53.254;10.398;2023-02-28T00:25:54;8.47;;;5.37;;
13230;SDS011;6681;53.254;10.398;2023-02-28T00:28:20;8.07;;;5.50;;
13230;SDS011;6681;53.254;10.398;2023-02-28T00:30:51;8.00;;;5.10;;
13230;SDS011;6681;53.254;10.398;2023-02-28T00:33:16;11.87;;;5.53;;
13230;SDS011;6681;53.254;10.398;2023-02-28T00:35:43;7.40;;;5.57;;
13230;SDS011;6681;53.254;10.398;2023-02-28T00:38:11;7.87;;;5.67;;
13230;SDS011;6681;53.254;10.398;2023-02-28T00:40:41;6.90;;;4.90;;
13230;SDS011;6681;53.254;10.398;2023-02-28T00:43:07;7.67;;;4.67;;
13230;SDS011;6681;53.254;10.398;2023-02-28T00:45:32;7.13;;;5.37;;
13230;SDS011;6681;53.254;10.398;2023-02-28T00:48:01;6.00;;;4.90;;
13230;SDS011;6681;53.254;10.398;2023-02-28T00:50:27;6.73;;;5.80;;
13230;SDS011;6681;53.254;10.398;2023-02-28T00:52:53;7.23;;;5.23;;
13230;SDS011;6681;53.254;10.398;2023-02-28T00:55:19;5.10;;;4.23;;
13230;SDS011;6681;53.254;10.398;2023-02-28T00:57:44;7.97;;;5.10;;
13230;SDS011;6681;53.254;10.398;2023-02-28T01:00:11;9.57;;;6.63;;
13230;SDS011;6681;53.254;10.398;2023-02-28T01:02:40;9.43;;;6.00;;
13230;SDS011;6681;53.254;10.398;2023-02-28T01:05:08;6.83;;;4.53;;
13230;SDS011;6681;53.254;10.398;2023-02-28T01:07:34;9.07;;;5.33;;
13230;SDS011;6681;53.254;10.398;2023-02-28T01:10:00;11.13;;;5.90;;
13230;SDS011;6681;53.254;10.398;2023-02-28T01:12:25;6.77;;;4.50;;
13230;SDS011;6681;53.254;10.398;2023-02-28T01:14:51;7.27;;;5.37;;
13230;SDS011;6681;53.254;10.398;2023-02-28T01:17:16;7.17;;;5.77;;
13230;SDS011;6681;53.254;10.398;2023-02-28T01:19:42;9.97;;;4.97;;
13230;SDS011;6681;53.254;10.398;2023-02-28T01:22:19;9.17;;;5.13;;
13230;SDS011;6681;53.254;10.398;2023-02-28T01:24:44;7.07;;;5.27;;
13230;SDS011;6681;53.254;10.398;2023-02-28T01:27:10;6.37;;;4.57;;
13230;SDS011;6681;53.254;10.398;2023-02-28T01:29:36;8.53;;;5.97;;
13230;SDS011;6681;53.254;10.398;2023-02-28T01:32:01;6.37;;;5.10;;
13230;SDS011;6681;53.254;10.398;2023-02-28T01:34:27;6.63;;;4.60;;
13230;SDS011;6681;53.254;10.398;2023-02-28T01:36:53;9.17;;;5.60;;
13230;SDS011;6681;53.254;10.398;2023-02-28T01:39:18;9.50;;;4.57;;
13230;SDS011;6681;53.254;10.398;2023-02-28T01:41:44;7.47;;;4.73;;
13230;SDS011;6681;53.254;10.398;2023-02-28T01:47:34;7.77;;;4.93;;
13230;SDS011;6681;53.254;10.398;2023-02-28T01:50:04;7.57;;;4.27;;
13230;SDS011;6681;53.254;10.398;2023-02-28T01:52:34;7.30;;;5.40;;
13230;SDS011;6681;53.254;10.398;2023-02-28T01:55:00;11.97;;;5.97;;
13230;SDS011;6681;53.254;10.398;2023-02-28T01:57:30;7.50;;;5.03;;
13230;SDS011;6681;53.254;10.398;2023-02-28T02:00:24;7.07;;;5.70;;
13230;SDS011;6681;53.254;10.398;2023-02-28T02:02:53;7.53;;;5.77;;
13230;SDS011;6681;53.254;10.398;2023-02-28T02:05:22;6.47;;;4.77;;
13230;SDS011;6681;53.254;10.398;2023-02-28T02:07:52;7.80;;;4.90;;
13230;SDS011;6681;53.254;10.398;2023-02-28T02:10:22;7.10;;;5.80;;
13230;SDS011;6681;53.254;10.398;2023-02-28T02:13:03;7.47;;;5.20;;
13230;SDS011;6681;53.254;10.398;2023-02-28T02:15:42;6.03;;;4.30;;
13230;SDS011;6681;53.254;10.398;2023-02-28T02:27:03;7.93;;;5.33;;
13230;SDS011;6681;53.254;10.398;2023-02-28T02:29:52;7.57;;;5.20;;
13230;SDS011;6681;53.254;10.398;2023-02-28T02:35:14;6.63;;;4.27;;
13230;SDS011;6681;53.254;10.398;2023-02-28T02:40:36;10.97;;;5.70;;
13230;SDS011;6681;53.254;10.398;2023-02-28T02:43:13;6.13;;;5.10;;
13230;SDS011;6681;53.254;10.398;2023-02-28T02:48:11;8.97;;;4.77;;
13230;SDS011;6681;53.254;10.398;2023-02-28T02:50:45;7.97;;;4.70;;
13230;SDS011;6681;53.254;10.398;2023-02-28T02:53:15;7.50;;;5.07;;
13230;SDS011;6681;53.254;10.398;2023-02-28T02:55:44;6.97;;;4.27;;
13230;SDS011;6681;53.254;10.398;2023-02-28T02:58:18;8.53;;;5.23;;
13230;SDS011;6681;53.254;10.398;2023-02-28T03:00:47;8.37;;;6.07;;
13230;SDS011;6681;53.254;10.398;2023-02-28T03:03:18;6.13;;;4.80;;
13230;SDS011;6681;53.254;10.398;2023-02-28T03:05:54;6.63;;;4.70;;
13230;SDS011;6681;53.254;10.398;2023-02-28T03:08:25;8.93;;;5.70;;
13230;SDS011;6681;53.254;10.398;2023-02-28T03:10:52;6.87;;;4.20;;
13230;SDS011;6681;53.254;10.398;2023-02-28T03:24:11;9.53;;;5.90;;
13230;SDS011;6681;53.254;10.398;2023-02-28T03:26:45;8.73;;;5.73;;
13230;SDS011;6681;53.254;10.398;2023-02-28T03:29:34;6.27;;;5.40;;
13230;SDS011;6681;53.254;10.398;2023-02-28T03:32:13;7.33;;;5.53;;
13230;SDS011;6681;53.254;10.398;2023-02-28T03:35:09;7.80;;;5.37;;
13230;SDS011;6681;53.254;10.398;2023-02-28T03:38:12;7.80;;;5.30;;
13230;SDS011;6681;53.254;10.398;2023-02-28T03:40:46;11.33;;;5.37;;
13230;SDS011;6681;53.254;10.398;2023-02-28T03:43:21;7.87;;;5.10;;
13230;SDS011;6681;53.254;10.398;2023-02-28T03:45:50;7.67;;;4.67;;
13230;SDS011;6681;53.254;10.398;2023-02-28T03:50:53;6.97;;;4.90;;
13230;SDS011;6681;53.254;10.398;2023-02-28T03:53:27;7.80;;;5.80;;
13230;SDS011;6681;53.254;10.398;2023-02-28T03:55:58;6.57;;;5.03;;
13230;SDS011;6681;53.254;10.398;2023-02-28T04:01:23;6.97;;;4.83;;
13230;SDS011;6681;53.254;10.398;2023-02-28T04:03:55;5.87;;;4.43;;
13230;SDS011;6681;53.254;10.398;2023-02-28T04:06:22;6.83;;;4.87;;
13230;SDS011;6681;53.254;10.398;2023-02-28T04:08:48;8.23;;;5.97;;
13230;SDS011;6681;53.254;10.398;2023-02-28T04:13:44;5.80;;;4.73;;
13230;SDS011;6681;53.254;10.398;2023-02-28T04:16:09;6.40;;;4.80;;
13230;SDS011;6681;53.254;10.398;2023-02-28T04:18:40;7.90;;;4.83;;
13230;SDS011;6681;53.254;10.398;2023-02-28T04:21:07;9.80;;;6.30;;
13230;SDS011;6681;53.254;10.398;2023-02-28T04:23:33;7.13;;;5.13;;
13230;SDS011;6681;53.254;10.398;2023-02-28T04:25:59;9.00;;;5.03;;
13230;SDS011;6681;53.254;10.398;2023-02-28T04:28:25;9.33;;;5.37;;
13230;SDS011;6681;53.254;10.398;2023-02-28T04:31:01;10.43;;;4.83;;
13230;SDS011;6681;53.254;10.398;2023-02-28T04:33:29;6.43;;;4.80;;
13230;SDS011;6681;53.254;10.398;2023-02-28T04:36:03;7.10;;;4.57;;
13230;SDS011;6681;53.254;10.398;2023-02-28T04:38:35;7.83;;;4.73;;
13230;SDS011;6681;53.254;10.398;2023-02-28T04:41:08;5.43;;;4.47;;
13230;SDS011;6681;53.254;10.398;2023-02-28T04:43:34;10.93;;;5.50;;
13230;SDS011;6681;53.254;10.398;2023-02-28T04:46:01;4.70;;;4.03;;
13230;SDS011;6681;53.254;10.398;2023-02-28T04:48:32;7.90;;;4.47;;
13230;SDS011;6681;53.254;10.398;2023-02-28T04:51:03;7.33;;;4.33;;
13230;SDS011;6681;53.254;10.398;2023-02-28T04:53:31;5.73;;;3.90;;
13230;SDS011;6681;53.254;10.398;2023-02-28T04:55:57;6.27;;;4.77;;
13230;SDS011;6681;53.254;10.398;2023-02-28T04:58:23;6.20;;;4.10;;
13230;SDS011;6681;53.254;10.398;2023-02-28T05:00:52;7.90;;;5.33;;
13230;SDS011;6681;53.254;10.398;2023-02-28T05:03:19;6.67;;;4.60;;
13230;SDS011;6681;53.254;10.398;2023-02-28T05:05:47;7.53;;;5.20;;
13230;SDS011;6681;53.254;10.398;2023-02-28T05:08:12;6.27;;;4.73;;
13230;SDS011;6681;53.254;10.398;2023-02-28T05:10:38;10.03;;;4.30;;
13230;SDS011;6681;53.254;10.398;2023-02-28T05:13:04;5.87;;;4.93;;
13230;SDS011;6681;53.254;10.398;2023-02-28T05:15:30;6.50;;;3.87;;
13230;SDS011;6681;53.254;10.398;2023-02-28T05:17:55;5.50;;;4.53;;
13230;SDS011;6681;53.254;10.398;2023-02-28T05:20:21;8.53;;;5.50;;
13230;SDS011;6681;53.254;10.398;2023-02-28T05:22:47;8.60;;;4.73;;
13230;SDS011;6681;53.254;10.398;2023-02-28T05:25:17;5.80;;;5.00;;
13230;SDS011;6681;53.254;10.398;2023-02-28T05:27:44;13.00;;;6.50;;
13230;SDS011;6681;53.254;10.398;2023-02-28T05:30:10;7.43;;;5.00;;
13230;SDS011;6681;53.254;10.398;2023-02-28T05:32:37;8.37;;;5.03;;
13230;SDS011;6681;53.254;10.398;2023-02-28T05:35:03;7.80;;;4.67;;
13230;SDS011;6681;53.254;10.398;2023-02-28T05:37:31;8.13;;;6.33;;
13230;SDS011;6681;53.254;10.398;2023-02-28T05:39:56;8.37;;;5.73;;
13230;SDS011;6681;53.254;10.398;2023-02-28T05:42:22;7.03;;;5.53;;
13230;SDS011;6681;53.254;10.398;2023-02-28T05:44:47;10.67;;;6.13;;
13230;SDS011;6681;53.254;10.398;2023-02-28T05:47:13;7.27;;;5.20;;
13230;SDS011;6681;53.254;10.398;2023-02-28T05:49:40;5.73;;;4.83;;
13230;SDS011;6681;53.254;10.398;2023-02-28T05:52:06;12.10;;;6.43;;
13230;SDS011;6681;53.254;10.398;2023-02-28T05:54:32;9.00;;;5.70;;
13230;SDS011;6681;53.254;10.398;2023-02-28T05:56:58;11.50;;;5.57;;
13230;SDS011;6681;53.254;10.398;2023-02-28T05:59:23;7.77;;;4.63;;
13230;SDS011;6681;53.254;10.398;2023-02-28T06:01:49;9.03;;;5.07;;
13230;SDS011;6681;53.254;10.398;2023-02-28T06:04:16;8.03;;;5.77;;
13230;SDS011;6681;53.254;10.398;2023-02-28T06:06:46;10.23;;;6.10;;
13230;SDS011;6681;53.254;10.398;2023-02-28T06:09:13;8.43;;;6.63;;
13230;SDS011;6681;53.254;10.398;2023-02-28T06:11:39;8.20;;;5.37;;
13230;SDS011;6681;53.254;10.398;2023-02-28T06:14:06;8.80;;;6.50;;
13230;SDS011;6681;53.254;10.398;2023-02-28T06:16:34;11.13;;;7.43;;
13230;SDS011;6681;53.254;10.398;2023-02-28T06:19:02;12.83;;;6.67;;
13230;SDS011;6681;53.254;10.398;2023-02-28T06:21:28;11.73;;;6.80;;
13230;SDS011;6681;53.254;10.398;2023-02-28T06:23:56;6.80;;;5.73;;
13230;SDS011;6681;53.254;10.398;2023-02-28T06:26:23;14.53;;;8.17;;
13230;SDS011;6681;53.254;10.398;2023-02-28T06:28:55;8.83;;;6.53;;
13230;SDS011;6681;53.254;10.398;2023-02-28T06:31:21;9.30;;;7.60;;
13230;SDS011;6681;53.254;10.398;2023-02-28T06:33:48;11.90;;;9.40;;
13230;SDS011;6681;53.254;10.398;2023-02-28T06:36:14;12.37;;;9.93;;
13230;SDS011;6681;53.254;10.398;2023-02-28T06:38:41;11.10;;;8.30;;
13230;SDS011;6681;53.254;10.398;2023-02-28T06:41:07;11.57;;;7.43;;
13230;SDS011;6681;53.254;10.398;2023-02-28T06:43:40;12.73;;;8.03;;
13230;SDS011;6681;53.254;10.398;2023-02-28T06:46:11;12.47;;;8.13;;
13230;SDS011;6681;53.254;10.398;2023-02-28T06:48:39;11.53;;;8.23;;
13230;SDS011;6681;53.254;10.398;2023-02-28T06:51:10;8.73;;;7.10;;
13230;SDS011;6681;53.254;10.398;2023-02-28T06:53:40;11.47;;;7.50;;
13230;SDS011;6681;53.254;10.398;2023-02-28T06:56:07;8.73;;;6.97;;
13230;SDS011;6681;53.254;10.398;2023-02-28T06:58:34;8.87;;;6.70;;
13230;SDS011;6681;53.254;10.398;2023-02-28T07:01:00;10.17;;;7.83;;
13230;SDS011;6681;53.254;10.398;2023-02-28T07:03:26;17.87;;;11.53;;
13230;SDS011;6681;53.254;10.398;2023-02-28T07:05:52;17.40;;;11.27;;
13230;SDS011;6681;53.254;10.398;2023-02-28T07:08:18;12.27;;;9.80;;
13230;SDS011;6681;53.254;10.398;2023-02-28T07:10:43;12.87;;;8.30;;
13230;SDS011;6681;53.254;10.398;2023-02-28T07:13:09;15.17;;;9.40;;
13230;SDS011;6681;53.254;10.398;2023-02-28T07:15:36;10.70;;;8.23;;
13230;SDS011;6681;53.254;10.398;2023-02-28T07:18:05;14.60;;;10.73;;
13230;SDS011;6681;53.254;10.398;2023-02-28T07:20:31;9.60;;;8.30;;
13230;SDS011;6681;53.254;10.398;2023-02-28T07:22:56;11.17;;;8.90;;
13230;SDS011;6681;53.254;10.398;2023-02-28T07:25:23;12.57;;;9.00;;
13230;SDS011;6681;53.254;10.398;2023-02-28T07:27:49;12.13;;;8.87;;
13230;SDS011;6681;53.254;10.398;2023-02-28T07:30:15;9.73;;;7.83;;
13230;SDS011;6681;53.254;10.398;2023-02-28T07:32:41;9.37;;;7.10;;
13230;SDS011;6681;53.254;10.398;2023-02-28T07:35:07;10.60;;;7.53;;
13230;SDS011;6681;53.254;10.398;2023-02-28T07:37:33;11.70;;;7.90;;
13230;SDS011;6681;53.254;10.398;2023-02-28T07:40:05;10.80;;;7.37;;
13230;SDS011;6681;53.254;10.398;2023-02-28T07:42:33;10.73;;;7.57;;
13230;SDS011;6681;53.254;10.398;2023-02-28T07:45:00;9.07;;;6.63;;
13230;SDS011;6681;53.254;10.398;2023-02-28T07:47:26;7.63;;;6.73;;
13230;SDS011;6681;53.254;10.398;2023-02-28T07:49:53;8.57;;;7.33;;
13230;SDS011;6681;53.254;10.398;2023-02-28T07:52:19;15.23;;;7.87;;
13230;SDS011;6681;53.254;10.398;2023-02-28T07:54:44;9.07;;;7.53;;
13230;SDS011;6681;53.254;10.398;2023-02-28T07:57:10;11.63;;;7.73;;
13230;SDS011;6681;53.254;10.398;2023-02-28T07:59:36;11.37;;;7.57;;
13230;SDS011;6681;53.254;10.398;2023-02-28T08:02:01;13.43;;;8.47;;
13230;SDS011;6681;53.254;10.398;2023-02-28T08:04:27;8.97;;;7.47;;
13230;SDS011;6681;53.254;10.398;2023-02-28T08:06:53;12.57;;;7.80;;
13230;SDS011;6681;53.254;10.398;2023-02-28T08:09:21;13.47;;;9.07;;
13230;SDS011;6681;53.254;10.398;2023-02-28T08:11:47;15.60;;;8.03;;
13230;SDS011;6681;53.254;10.398;2023-02-28T08:14:12;13.03;;;8.87;;
13230;SDS011;6681;53.254;10.398;2023-02-28T08:16:38;12.13;;;7.57;;
13230;SDS011;6681;53.254;10.398;2023-02-28T08:19:04;14.63;;;7.97;;
13230;SDS011;6681;53.254;10.398;2023-02-28T08:21:30;15.57;;;8.97;;
13230;SDS011;6681;53.254;10.398;2023-02-28T08:23:55;20.30;;;7.23;;
13230;SDS011;6681;53.254;10.398;2023-02-28T08:26:22;18.43;;;7.20;;
13230;SDS011;6681;53.254;10.398;2023-02-28T08:28:47;15.80;;;8.23;;
13230;SDS011;6681;53.254;10.398;2023-02-28T08:31:14;8.73;;;6.07;;
13230;SDS011;6681;53.254;10.398;2023-02-28T08:33:40;23.07;;;8.63;;
13230;SDS011;6681;53.254;10.398;2023-02-28T08:36:07;16.07;;;7.53;;
13230;SDS011;6681;53.254;10.398;2023-02-28T08:38:34;14.23;;;8.37;;
13230;SDS011;6681;53.254;10.398;2023-02-28T08:41:02;11.70;;;7.00;;
13230;SDS011;6681;53.254;10.398;2023-02-28T08:43:32;13.93;;;6.20;;
13230;SDS011;6681;53.254;10.398;2023-02-28T08:45:59;14.97;;;5.90;;
13230;SDS011;6681;53.254;10.398;2023-02-28T08:48:25;14.40;;;6.33;;
13230;SDS011;6681;53.254;10.398;2023-02-28T08:50:59;11.10;;;7.10;;
13230;SDS011;6681;53.254;10.398;2023-02-28T08:53:30;9.77;;;5.37;;
13230;SDS011;6681;53.254;10.398;2023-02-28T08:55:57;10.30;;;6.37;;
13230;SDS011;6681;53.254;10.398;2023-02-28T08:58:22;9.67;;;5.17;;
13230;SDS011;6681;53.254;10.398;2023-02-28T09:00:48;12.70;;;5.97;;
13230;SDS011;6681;53.254;10.398;2023-02-28T09:03:13;6.47;;;5.37;;
13230;SDS011;6681;53.254;10.398;2023-02-28T09:05:39;9.90;;;5.73;;
13230;SDS011;6681;53.254;10.398;2023-02-28T09:08:05;10.13;;;5.67;;
13230;SDS011;6681;53.254;10.398;2023-02-28T09:10:31;8.63;;;5.73;;
13230;SDS011;6681;53.254;10.398;2023-02-28T09:12:56;8.03;;;4.80;;
13230;SDS011;6681;53.254;10.398;2023-02-28T09:15:22;11.47;;;6.33;;
13230;SDS011;6681;53.254;10.398;2023-02-28T09:17:48;10.73;;;5.20;;
13230;SDS011;6681;53.254;10.398;2023-02-28T09:20:13;9.93;;;5.60;;
13230;SDS011;6681;53.254;10.398;2023-02-28T09:22:40;12.13;;;6.60;;
13230;SDS011;6681;53.254;10.398;2023-02-28T09:25:06;7.73;;;4.73;;
13230;SDS011;6681;53.254;10.398;2023-02-28T09:27:32;9.97;;;5.47;;
13230;SDS011;6681;53.254;10.398;2023-02-28T09:29:57;12.63;;;5.67;;
13230;SDS011;6681;53.254;10.398;2023-02-28T09:32:23;5.67;;;4.57;;
13230;SDS011;6681;53.254;10.398;2023-02-28T09:34:48;9.70;;;5.23;;
13230;SDS011;6681;53.254;10.398;2023-02-28T09:37:14;8.97;;;4.73;;
13230;SDS011;6681;53.254;10.398;2023-02-28T09:39:40;9.67;;;5.60;;
13230;SDS011;6681;53.254;10.398;2023-02-28T09:42:05;5.70;;;4.57;;
13230;SDS011;6681;53.254;10.398;2023-02-28T09:44:42;5.07;;;3.73;;
13230;SDS011;6681;53.254;10.398;2023-02-28T09:47:12;5.30;;;4.03;;
13230;SDS011;6681;53.254;10.398;2023-02-28T09:49:44;4.77;;;4.13;;
13230;SDS011;6681;53.254;10.398;2023-02-28T09:52:13;5.17;;;3.07;;
13230;SDS011;6681;53.254;10.398;2023-02-28T09:54:44;5.37;;;2.43;;
13230;SDS011;6681;53.254;10.398;2023-02-28T09:57:15;1.90;;;1.27;;
13230;SDS011;6681;53.254;10.398;2023-02-28T10:05:16;1.83;;;1.40;;
13230;SDS011;6681;53.254;10.398;2023-02-28T10:08:03;1.23;;;1.13;;
13230;SDS011;6681;53.254;10.398;2023-02-28T10:10:45;1.33;;;1.10;;
13230;SDS011;6681;53.254;10.398;2023-02-28T10:13:25;1.30;;;0.80;;
13230;SDS011;6681;53.254;10.398;2023-02-28T10:16:07;1.13;;;1.00;;
13230;SDS011;6681;53.254;10.398;2023-02-28T10:18:49;1.67;;;1.37;;
13230;SDS011;6681;53.254;10.398;2023-02-28T10:21:21;6.10;;;1.60;;
13230;SDS011;6681;53.254;10.398;2023-02-28T10:26:52;2.77;;;1.83;;
13230;SDS011;6681;53.254;10.398;2023-02-28T10:29:25;2.97;;;2.33;;
13230;SDS011;6681;53.254;10.398;2023-02-28T10:31:51;3.53;;;1.73;;
13230;SDS011;6681;53.254;10.398;2023-02-28T10:34:17;3.30;;;2.10;;
13230;SDS011;6681;53.254;10.398;2023-02-28T10:36:42;3.50;;;1.03;;
13230;SDS011;6681;53.254;10.398;2023-02-28T10:42:29;9.30;;;2.63;;
13230;SDS011;6681;53.254;10.398;2023-02-28T10:45:04;2.37;;;1.83;;
13230;SDS011;6681;53.254;10.398;2023-02-28T10:47:55;3.17;;;1.93;;
13230;SDS011;6681;53.254;10.398;2023-02-28T10:55:58;4.43;;;2.30;;
13230;SDS011;6681;53.254;10.398;2023-02-28T10:58:42;4.00;;;2.03;;
13230;SDS011;6681;53.254;10.398;2023-02-28T11:01:17;3.23;;;2.20;;
13230;SDS011;6681;53.254;10.398;2023-02-28T11:03:45;2.00;;;1.90;;
13230;SDS011;6681;53.254;10.398;2023-02-28T11:06:15;3.77;;;2.10;;
13230;SDS011;6681;53.254;10.398;2023-02-28T11:08:45;3.27;;;1.50;;
13230;SDS011;6681;53.254;10.398;2023-02-28T11:11:12;1.97;;;1.73;;
13230;SDS011;6681;53.254;10.398;2023-02-28T11:13:39;3.20;;;2.13;;
13230;SDS011;6681;53.254;10.398;2023-02-28T11:16:05;3.30;;;2.37;;
13230;SDS011;6681;53.254;10.398;2023-02-28T11:18:55;3.67;;;2.20;;
13230;SDS011;6681;53.254;10.398;2023-02-28T11:23:52;2.80;;;2.60;;
13230;SDS011;6681;53.254;10.398;2023-02-28T11:26:49;3.00;;;2.60;;
13230;SDS011;6681;53.254;10.398;2023-02-28T11:32:01;4.33;;;1.73;;
13230;SDS011;6681;53.254;10.398;2023-02-28T11:34:31;3.73;;;1.93;;
13230;SDS011;6681;53.254;10.398;2023-02-28T11:36:57;1.63;;;1.10;;
13230;SDS011;6681;53.254;10.398;2023-02-28T11:39:25;0.83;;;0.83;;
13230;SDS011;6681;53.254;10.398;2023-02-28T11:55:17;1.77;;;0.97;;
13230;SDS011;6681;53.254;10.398;2023-02-28T11:58:05;0.43;;;0.43;;
13230;SDS011;6681;53.254;10.398;2023-02-28T12:03:43;1.43;;;0.87;;
13230;SDS011;6681;53.254;10.398;2023-02-28T12:08:53;1.90;;;0.70;;
13230;SDS011;6681;53.254;10.398;2023-02-28T12:15:25;0.67;;;0.67;;
13230;SDS011;6681;53.254;10.398;2023-02-28T12:20:25;3.63;;;1.17;;
13230;SDS011;6681;53.254;10.398;2023-02-28T12:26:14;2.53;;;1.37;;
13230;SDS011;6681;53.254;10.398;2023-02-28T12:29:00;2.00;;;1.13;;
13230;SDS011;6681;53.254;10.398;2023-02-28T12:31:37;1.23;;;0.87;;
13230;SDS011;6681;53.254;10.398;2023-02-28T12:34:08;5.37;;;1.10;;
13230;SDS011;6681;53.254;10.398;2023-02-28T12:36:37;3.50;;;1.00;;
13230;SDS011;6681;53.254;10.398;2023-02-28T12:39:49;1.43;;;1.33;;
13230;SDS011;6681;53.254;10.398;2023-02-28T12:42:40;8.03;;;2.53;;
13230;SDS011;6681;53.254;10.398;2023-02-28T12:44:56;2.67;;;1.40;;
13230;SDS011;6681;53.254;10.398;2023-02-28T12:48:00;2.70;;;1.50;;
13230;SDS011;6681;53.254;10.398;2023-02-28T12:50:29;4.17;;;2.03;;
13230;SDS011;6681;53.254;10.398;2023-02-28T12:55:34;2.33;;;1.37;;
13230;SDS011;6681;53.254;10.398;2023-02-28T13:00:33;1.27;;;1.00;;
13230;SDS011;6681;53.254;10.398;2023-02-28T13:06:17;3.47;;;1.20;;
13230;SDS011;6681;53.254;10.398;2023-02-28T13:09:04;2.67;;;0.90;;
13230;SDS011;6681;53.254;10.398;2023-02-28T13:11:39;0.70;;;0.70;;
13230;SDS011;6681;53.254;10.398;2023-02-28T13:14:06;2.77;;;1.33;;
13230;SDS011;6681;53.254;10.398;2023-02-28T13:16:51;3.33;;;1.27;;
13230;SDS011;6681;53.254;10.398;2023-02-28T13:19:27;2.67;;;1.47;;
13230;SDS011;6681;53.254;10.398;2023-02-28T13:21:56;3.97;;;1.30;;
13230;SDS011;6681;53.254;10.398;2023-02-28T13:24:42;2.23;;;1.03;;
13230;SDS011;6681;53.254;10.398;2023-02-28T13:27:12;2.53;;;1.30;;
13230;SDS011;6681;53.254;10.398;2023-02-28T13:29:56;2.47;;;1.07;;
13230;SDS011;6681;53.254;10.398;2023-02-28T13:47:30;3.80;;;1.73;;
13230;SDS011;6681;53.254;10.398;2023-02-28T13:50:23;1.80;;;1.23;;
13230;SDS011;6681;53.254;10.398;2023-02-28T13:53:06;1.30;;;1.20;;
13230;SDS011;6681;53.254;10.398;2023-02-28T14:01:52;1.73;;;1.00;;
13230;SDS011;6681;53.254;10.398;2023-02-28T14:04:46;1.70;;;1.60;;
13230;SDS011;6681;53.254;10.398;2023-02-28T14:07:29;2.43;;;0.87;;
13230;SDS011;6681;53.254;10.398;2023-02-28T14:10:08;1.73;;;1.10;;
13230;SDS011;6681;53.254;10.398;2023-02-28T14:12:57;2.63;;;0.87;;
13230;SDS011;6681;53.254;10.398;2023-02-28T14:15:47;1.17;;;1.00;;
13230;SDS011;6681;53.254;10.398;2023-02-28T14:20:52;1.80;;;1.00;;
13230;SDS011;6681;53.254;10.398;2023-02-28T14:23:39;2.53;;;1.40;;
13230;SDS011;6681;53.254;10.398;2023-02-28T14:26:29;2.57;;;1.07;;
13230;SDS011;6681;53.254;10.398;2023-02-28T14:32:02;1.17;;;0.70;;
13230;SDS011;6681;53.254;10.398;2023-02-28T14:37:28;1.33;;;1.23;;
13230;SDS011;6681;53.254;10.398;2023-02-28T14:39:56;4.57;;;1.87;;
13230;SDS011;6681;53.254;10.398;2023-02-28T14:42:33;3.20;;;0.83;;
13230;SDS011;6681;53.254;10.398;2023-02-28T14:45:03;2.83;;;1.17;;
13230;SDS011;6681;53.254;10.398;2023-02-28T14:47:33;1.43;;;1.17;;
13230;SDS011;6681;53.254;10.398;2023-02-28T14:50:00;0.60;;;0.60;;
13230;SDS011;6681;53.254;10.398;2023-02-28T14:52:29;0.93;;;0.93;;
13230;SDS011;6681;53.254;10.398;2023-02-28T14:54:58;1.00;;;0.70;;
13230;SDS011;6681;53.254;10.398;2023-02-28T15:00:05;2.10;;;0.70;;
13230;SDS011;6681;53.254;10.398;2023-02-28T15:02:36;1.00;;;0.43;;
13230;SDS011;6681;53.254;10.398;2023-02-28T15:07:44;3.27;;;0.80;;
13230;SDS011;6681;53.254;10.398;2023-02-28T15:10:20;1.17;;;0.73;;
13230;SDS011;6681;53.254;10.398;2023-02-28T15:15:18;2.23;;;1.30;;
13230;SDS011;6681;53.254;10.398;2023-02-28T15:17:48;2.17;;;1.10;;
13230;SDS011;6681;53.254;10.398;2023-02-28T15:20:16;4.90;;;2.53;;
13230;SDS011;6681;53.254;10.398;2023-02-28T15:22:43;3.13;;;1.60;;
13230;SDS011;6681;53.254;10.398;2023-02-28T15:25:13;7.43;;;1.33;;
13230;SDS011;6681;53.254;10.398;2023-02-28T15:27:47;1.43;;;1.33;;
13230;SDS011;6681;53.254;10.398;2023-02-28T15:30:20;1.00;;;0.80;;
13230;SDS011;6681;53.254;10.398;2023-02-28T15:35:33;3.77;;;2.57;;
13230;SDS011;6681;53.254;10.398;2023-02-28T15:38:04;3.60;;;0.87;;
13230;SDS011;6681;53.254;10.398;2023-02-28T15:40:44;1.00;;;0.80;;
13230;SDS011;6681;53.254;10.398;2023-02-28T15:46:10;1.10;;;0.87;;
13230;SDS011;6681;53.254;10.398;2023-02-28T15:51:19;1.60;;;1.27;;
13230;SDS011;6681;53.254;10.398;2023-02-28T15:53:54;2.57;;;1.70;;
13230;SDS011;6681;53.254;10.398;2023-02-28T15:56:28;5.43;;;3.30;;
13230;SDS011;6681;53.254;10.398;2023-02-28T15:58:56;2.47;;;1.00;;
13230;SDS011;6681;53.254;10.398;2023-02-28T16:01:28;2.90;;;1.43;;
13230;SDS011;6681;53.254;10.398;2023-02-28T16:03:56;2.43;;;0.90;;
13230;SDS011;6681;53.254;10.398;2023-02-28T16:06:41;5.07;;;0.80;;
13230;SDS011;6681;53.254;10.398;2023-02-28T16:09:17;1.43;;;1.20;;
13230;SDS011;6681;53.254;10.398;2023-02-28T16:11:47;2.43;;;1.43;;
13230;SDS011;6681;53.254;10.398;2023-02-28T16:14:15;2.57;;;1.57;;
13230;SDS011;6681;53.254;10.398;2023-02-28T16:16:56;1.60;;;1.20;;
13230;SDS011;6681;53.254;10.398;2023-02-28T16:19:34;2.43;;;0.90;;
13230;SDS011;6681;53.254;10.398;2023-02-28T16:21:59;1.00;;;0.90;;
13230;SDS011;6681;53.254;10.398;2023-02-28T16:24:26;4.83;;;2.50;;
13230;SDS011;6681;53.254;10.398;2023-02-28T16:26:52;6.37;;;4.30;;
13230;SDS011;6681;53.254;10.398;2023-02-28T16:31:59;14.43;;;8.13;;
13230;SDS011;6681;53.254;10.398;2023-02-28T16:34:26;10.33;;;7.03;;
13230;SDS011;6681;53.254;10.398;2023-02-28T16:36:52;6.13;;;5.17;;
13230;SDS011;6681;53.254;10.398;2023-02-28T16:39:18;8.37;;;4.77;;
13230;SDS011;6681;53.254;10.398;2023-02-28T16:41:45;7.07;;;4.90;;
13230;SDS011;6681;53.254;10.398;2023-02-28T16:44:14;9.60;;;3.93;;
13230;SDS011;6681;53.254;10.398;2023-02-28T16:46:44;5.67;;;3.60;;
13230;SDS011;6681;53.254;10.398;2023-02-28T16:49:11;4.83;;;3.77;;
13230;SDS011;6681;53.254;10.398;2023-02-28T16:51:38;5.93;;;4.37;;
13230;SDS011;6681;53.254;10.398;2023-02-28T16:54:03;6.80;;;4.47;;
13230;SDS011;6681;53.254;10.398;2023-02-28T16:56:29;5.53;;;3.30;;
13230;SDS011;6681;53.254;10.398;2023-02-28T16:58:55;6.57;;;3.83;;
13230;SDS011;6681;53.254;10.398;2023-02-28T17:01:25;4.90;;;2.60;;
13230;SDS011;6681;53.254;10.398;2023-02-28T17:03:52;4.97;;;3.00;;
13230;SDS011;6681;53.254;10.398;2023-02-28T17:06:19;4.17;;;2.17;;
13230;SDS011;6681;53.254;10.398;2023-02-28T17:08:54;3.77;;;2.43;;
13230;SDS011;6681;53.254;10.398;2023-02-28T17:11:21;3.10;;;2.00;;
13230;SDS011;6681;53.254;10.398;2023-02-28T17:13:47;1.50;;;1.40;;
13230;SDS011;6681;53.254;10.398;2023-02-28T17:16:22;2.40;;;2.03;;
13230;SDS011;6681;53.254;10.398;2023-02-28T17:18:58;10.83;;;6.70;;
13230;SDS011;6681;53.254;10.398;2023-02-28T17:21:25;18.23;;;9.70;;
13230;SDS011;6681;53.254;10.398;2023-02-28T17:23:51;18.27;;;10.50;;
13230;SDS011;6681;53.254;10.398;2023-02-28T17:26:17;18.67;;;9.63;;
13230;SDS011;6681;53.254;10.398;2023-02-28T17:28:45;10.77;;;6.83;;
13230;SDS011;6681;53.254;10.398;2023-02-28T17:31:12;8.53;;;6.23;;